sensor_id;sensor_type;location;lat;lon;timestamp;pressure;altitude;pressure_sealevel;temperature;humidity
31299;BME280;17927;52.350;13.402;2023-02-16T00:00:20;101966.78;;;6.64;50.21
31299;BME280;17927;52.350;13.402;2023-02-16T00:02:46;101964.25;;;6.61;50.57
31299;BME280;17927;52.350;13.402;2023-02-16T00:05:23;101972.31;;;6.61;50.65
31299;BME280;17927;52.350;13.402;2023-02-16T00:07:49;101971.63;;;6.57;50.46
31299;BME280;17927;52.350;13.402;2023-02-16T00:10:14;101966.25;;;6.57;50.45
31299;BME280;17927;52.350;13.402;2023-02-16T00:12:39;101967.22;;;6.56;50.34
31299;BME280;17927;52.350;13.402;2023-02-16T00:15:23;101967.28;;;6.54;50.59
31299;BME280;17927;52.350;13.402;2023-02-16T00:17:48;101982.44;;;6.55;50.20
31299;BME280;17927;52.350;13.402;2023-02-16T00:20:15;101977.16;;;6.54;50.27
31299;BME280;17927;52.350;13.402;2023-02-16T00:22:41;101971.13;;;6.50;50.17
31299;BME280;17927;52.350;13.402;2023-02-16T00:25:06;101963.13;;;6.49;50.43
31299;BME280;17927;52.350;13.402;2023-02-16T00:27:32;101960.53;;;6.47;50.65
31299;BME280;17927;52.350;13.402;2023-02-16T00:29:58;101965.91;;;6.47;50.44
31299;BME280;17927;52.350;13.402;2023-02-16T00:32:23;101958.97;;;6.43;50.81
31299;BME280;17927;52.350;13.402;2023-02-16T00:34:48;101958.13;;;6.43;50.83
31299;BME280;17927;52.350;13.402;2023-02-16T00:37:14;101968.06;;;6.40;50.72
31299;BME280;17927;52.350;13.402;2023-02-16T00:39:41;101967.28;;;6.38;50.76
31299;BME280;17927;52.350;13.402;2023-02-16T00:42:20;101976.41;;;6.36;51.00
31299;BME280;17927;52.350;13.402;2023-02-16T00:44:48;101971.97;;;6.35;51.25
31299;BME280;17927;52.350;13.402;2023-02-16T00:47:34;101964.88;;;6.34;51.06
31299;BME280;17927;52.350;13.402;2023-02-16T00:50:01;101972.94;;;6.34;51.09
31299;BME280;17927;52.350;13.402;2023-02-16T00:52:32;101969.34;;;6.33;50.90
31299;BME280;17927;52.350;13.402;2023-02-16T00:54:59;101962.25;;;6.32;50.99
31299;BME280;17927;52.350;13.402;2023-02-16T00:57:26;101965.03;;;6.31;50.98
31299;BME280;17927;52.350;13.402;2023-02-16T01:00:06;101966.88;;;6.30;50.96
31299;BME280;17927;52.350;13.402;2023-02-16T01:02:31;101967.88;;;6.28;51.09
31299;BME280;17927;52.350;13.402;2023-02-16T01:04:56;101973.41;;;6.24;50.89
31299;BME280;17927;52.350;13.402;2023-02-16T01:07:22;101966.41;;;6.22;51.32
31299;BME280;17927;52.350;13.402;2023-02-16T01:10:06;101960.34;;;6.18;51.39
31299;BME280;17927;52.350;13.402;2023-02-16T01:12:50;101958.69;;;6.16;51.30
31299;BME280;17927;52.350;13.402;2023-02-16T01:15:18;101959.56;;;6.16;51.28
31299;BME280;17927;52.350;13.402;2023-02-16T01:17:46;101960.63;;;6.14;51.09
31299;BME280;17927;52.350;13.402;2023-02-16T01:20:17;101956.19;;;6.13;51.30
31299;BME280;17927;52.350;13.402;2023-02-16T01:22:43;101952.56;;;6.14;51.43
31299;BME280;17927;52.350;13.402;2023-02-16T01:25:08;101956.09;;;6.14;51.55
31299;BME280;17927;52.350;13.402;2023-02-16T01:27:36;101951.63;;;6.15;51.44
31299;BME280;17927;52.350;13.402;2023-02-16T01:30:03;101956.09;;;6.14;51.78
31299;BME280;17927;52.350;13.402;2023-02-16T01:32:28;101960.53;;;6.15;51.79
31299;BME280;17927;52.350;13.402;2023-02-16T01:34:54;101962.25;;;6.16;52.10
31299;BME280;17927;52.350;13.402;2023-02-16T01:37:19;101964.84;;;6.18;52.17
31299;BME280;17927;52.350;13.402;2023-02-16T01:39:44;101955.84;;;6.19;52.42
31299;BME280;17927;52.350;13.402;2023-02-16T01:42:16;101960.34;;;6.18;52.66
31299;BME280;17927;52.350;13.402;2023-02-16T01:45:01;101956.78;;;6.18;52.91
31299;BME280;17927;52.350;13.402;2023-02-16T01:47:37;101956.88;;;6.16;53.04
31299;BME280;17927;52.350;13.402;2023-02-16T01:50:24;101953.31;;;6.16;53.19
31299;BME280;17927;52.350;13.402;2023-02-16T01:53:03;101951.63;;;6.15;53.17
31299;BME280;17927;52.350;13.402;2023-02-16T01:55:37;101937.31;;;6.14;53.45
31299;BME280;17927;52.350;13.402;2023-02-16T01:58:18;101939.16;;;6.14;53.73
31299;BME280;17927;52.350;13.402;2023-02-16T02:03:16;101934.75;;;6.13;53.59
31299;BME280;17927;52.350;13.402;2023-02-16T02:06:01;101938.44;;;6.10;53.85
31299;BME280;17927;52.350;13.402;2023-02-16T02:08:49;101941.06;;;6.12;53.87
31299;BME280;17927;52.350;13.402;2023-02-16T02:11:28;101932.28;;;6.08;54.06
31299;BME280;17927;52.350;13.402;2023-02-16T02:14:10;101935.84;;;6.08;54.29
31299;BME280;17927;52.350;13.402;2023-02-16T02:16:37;101926.84;;;6.09;54.06
31299;BME280;17927;52.350;13.402;2023-02-16T02:19:03;101923.06;;;6.14;53.69
31299;BME280;17927;52.350;13.402;2023-02-16T02:24:59;101923.72;;;6.01;53.84
31299;BME280;17927;52.350;13.402;2023-02-16T02:27:31;101928.13;;;6.02;53.54
31299;BME280;17927;52.350;13.402;2023-02-16T02:30:07;101922.53;;;6.07;53.69
31299;BME280;17927;52.350;13.402;2023-02-16T02:32:52;101922.34;;;6.10;53.67
31299;BME280;17927;52.350;13.402;2023-02-16T02:38:01;101926.84;;;6.09;53.25
31299;BME280;17927;52.350;13.402;2023-02-16T02:40:57;101922.44;;;6.08;53.22
31299;BME280;17927;52.350;13.402;2023-02-16T02:43:35;101915.50;;;6.04;53.27
31299;BME280;17927;52.350;13.402;2023-02-16T02:46:08;101919.22;;;6.02;53.08
31299;BME280;17927;52.350;13.402;2023-02-16T02:48:34;101912.13;;;6.01;52.97
31299;BME280;17927;52.350;13.402;2023-02-16T02:51:02;101913.94;;;6.00;52.92
31299;BME280;17927;52.350;13.402;2023-02-16T02:53:53;101914.00;;;5.99;53.08
31299;BME280;17927;52.350;13.402;2023-02-16T02:56:41;101916.78;;;5.97;53.13
31299;BME280;17927;52.350;13.402;2023-02-16T02:59:29;101912.34;;;5.96;53.62
31299;BME280;17927;52.350;13.402;2023-02-16T03:02:15;101914.09;;;5.97;53.44
31299;BME280;17927;52.350;13.402;2023-02-16T03:04:43;101907.00;;;5.96;53.62
31299;BME280;17927;52.350;13.402;2023-02-16T03:07:10;101905.25;;;5.95;53.94
31299;BME280;17927;52.350;13.402;2023-02-16T03:09:36;101907.06;;;5.94;54.10
31299;BME280;17927;52.350;13.402;2023-02-16T03:12:02;101908.94;;;5.92;54.43
31299;BME280;17927;52.350;13.402;2023-02-16T03:14:53;101898.31;;;5.91;54.35
31299;BME280;17927;52.350;13.402;2023-02-16T03:17:24;101901.88;;;5.91;54.36
31299;BME280;17927;52.350;13.402;2023-02-16T03:20:12;101907.25;;;5.91;54.16
31299;BME280;17927;52.350;13.402;2023-02-16T03:22:57;101901.00;;;5.91;54.32
31299;BME280;17927;52.350;13.402;2023-02-16T03:25:41;101901.88;;;5.91;54.29
31299;BME280;17927;52.350;13.402;2023-02-16T03:28:27;101900.06;;;5.92;54.23
31299;BME280;17927;52.350;13.402;2023-02-16T03:31:18;101896.59;;;5.90;54.57
31299;BME280;17927;52.350;13.402;2023-02-16T03:33:46;101908.09;;;5.92;54.51
31299;BME280;17927;52.350;13.402;2023-02-16T03:36:18;101904.56;;;5.91;54.36
31299;BME280;17927;52.350;13.402;2023-02-16T03:38:43;101907.25;;;5.91;54.36
31299;BME280;17927;52.350;13.402;2023-02-16T03:41:09;101905.41;;;5.92;54.67
31299;BME280;17927;52.350;13.402;2023-02-16T03:43:34;101909.06;;;5.91;54.53
31299;BME280;17927;52.350;13.402;2023-02-16T03:45:59;101919.78;;;5.91;54.56
31299;BME280;17927;52.350;13.402;2023-02-16T03:48:24;101919.69;;;5.92;54.77
31299;BME280;17927;52.350;13.402;2023-02-16T03:50:50;101911.63;;;5.92;54.59
31299;BME280;17927;52.350;13.402;2023-02-16T03:53:15;101912.63;;;5.91;54.52
31299;BME280;17927;52.350;13.402;2023-02-16T03:55:45;101913.47;;;5.92;54.71
31299;BME280;17927;52.350;13.402;2023-02-16T03:58:13;101913.56;;;5.90;54.79
31299;BME280;17927;52.350;13.402;2023-02-16T04:00:39;101903.78;;;5.89;55.09
31299;BME280;17927;52.350;13.402;2023-02-16T04:03:05;101906.38;;;5.91;54.87
31299;BME280;17927;52.350;13.402;2023-02-16T04:05:31;101916.06;;;5.93;54.84
31299;BME280;17927;52.350;13.402;2023-02-16T04:07:56;101906.28;;;5.92;54.71
31299;BME280;17927;52.350;13.402;2023-02-16T04:10:22;101902.75;;;5.92;54.84
31299;BME280;17927;52.350;13.402;2023-02-16T04:12:47;101900.91;;;5.92;54.81
31299;BME280;17927;52.350;13.402;2023-02-16T04:15:15;101900.06;;;5.92;55.14
31299;BME280;17927;52.350;13.402;2023-02-16T04:17:40;101901.09;;;5.89;54.86
31299;BME280;17927;52.350;13.402;2023-02-16T04:20:09;101899.38;;;5.88;55.06
31299;BME280;17927;52.350;13.402;2023-02-16T04:22:35;101900.31;;;5.87;55.06
31299;BME280;17927;52.350;13.402;2023-02-16T04:25:01;101893.22;;;5.86;55.17
31299;BME280;17927;52.350;13.402;2023-02-16T04:27:26;101901.31;;;5.85;55.21
31299;BME280;17927;52.350;13.402;2023-02-16T04:29:51;101909.38;;;5.85;55.22
31299;BME280;17927;52.350;13.402;2023-02-16T04:32:16;101897.78;;;5.84;54.88
31299;BME280;17927;52.350;13.402;2023-02-16T04:34:42;101895.00;;;5.86;55.03
31299;BME280;17927;52.350;13.402;2023-02-16T04:37:07;101897.78;;;5.84;55.02
31299;BME280;17927;52.350;13.402;2023-02-16T04:39:32;101898.66;;;5.85;54.95
31299;BME280;17927;52.350;13.402;2023-02-16T04:41:57;101889.75;;;5.84;55.20
31299;BME280;17927;52.350;13.402;2023-02-16T04:44:23;101898.66;;;5.85;55.11
31299;BME280;17927;52.350;13.402;2023-02-16T04:46:48;101897.88;;;5.83;55.00
31299;BME280;17927;52.350;13.402;2023-02-16T04:49:13;101895.22;;;5.83;55.05
31299;BME280;17927;52.350;13.402;2023-02-16T04:51:38;101890.84;;;5.80;55.28
31299;BME280;17927;52.350;13.402;2023-02-16T04:54:05;101890.84;;;5.80;55.22
31299;BME280;17927;52.350;13.402;2023-02-16T04:56:30;101891.81;;;5.79;55.18
31299;BME280;17927;52.350;13.402;2023-02-16T04:58:55;101890.78;;;5.82;55.23
31299;BME280;17927;52.350;13.402;2023-02-16T05:01:23;101887.22;;;5.81;55.05
31299;BME280;17927;52.350;13.402;2023-02-16T05:03:49;101895.38;;;5.79;55.14
31299;BME280;17927;52.350;13.402;2023-02-16T05:06:15;101893.63;;;5.78;55.14
31299;BME280;17927;52.350;13.402;2023-02-16T05:08:40;101891.81;;;5.79;55.20
31299;BME280;17927;52.350;13.402;2023-02-16T05:11:06;101894.69;;;5.76;54.92
31299;BME280;17927;52.350;13.402;2023-02-16T05:13:49;101892.16;;;5.73;55.27
31299;BME280;17927;52.350;13.402;2023-02-16T05:16:33;101900.38;;;5.70;55.08
31299;BME280;17927;52.350;13.402;2023-02-16T05:18:59;101899.69;;;5.66;55.24
31299;BME280;17927;52.350;13.402;2023-02-16T05:21:24;101897.94;;;5.65;55.20
31299;BME280;17927;52.350;13.402;2023-02-16T05:23:59;101908.72;;;5.63;55.17
31299;BME280;17927;52.350;13.402;2023-02-16T05:26:25;101910.56;;;5.63;55.20
31299;BME280;17927;52.350;13.402;2023-02-16T05:28:50;101910.56;;;5.63;55.10
31299;BME280;17927;52.350;13.402;2023-02-16T05:31:15;101915.03;;;5.62;54.97
31299;BME280;17927;52.350;13.402;2023-02-16T05:33:41;101922.22;;;5.62;55.21
31299;BME280;17927;52.350;13.402;2023-02-16T05:36:06;101919.69;;;5.59;55.17
31299;BME280;17927;52.350;13.402;2023-02-16T05:38:31;101916.22;;;5.57;55.19
31299;BME280;17927;52.350;13.402;2023-02-16T05:40:58;101901.09;;;5.56;55.12
31299;BME280;17927;52.350;13.402;2023-02-16T05:43:24;101900.00;;;5.60;55.33
31299;BME280;17927;52.350;13.402;2023-02-16T05:45:49;101901.63;;;5.62;55.17
31299;BME280;17927;52.350;13.402;2023-02-16T05:48:14;101914.88;;;5.66;55.16
31299;BME280;17927;52.350;13.402;2023-02-16T05:50:40;101903.22;;;5.67;55.09
31299;BME280;17927;52.350;13.402;2023-02-16T05:53:05;101907.63;;;5.68;54.92
31299;BME280;17927;52.350;13.402;2023-02-16T05:55:30;101901.41;;;5.67;54.97
31299;BME280;17927;52.350;13.402;2023-02-16T05:57:55;101909.44;;;5.67;55.01
31299;BME280;17927;52.350;13.402;2023-02-16T06:00:21;101901.47;;;5.66;55.11
31299;BME280;17927;52.350;13.402;2023-02-16T06:02:46;101921.19;;;5.64;55.05
31299;BME280;17927;52.350;13.402;2023-02-16T06:05:11;101925.69;;;5.64;54.92
31299;BME280;17927;52.350;13.402;2023-02-16T06:07:36;101925.75;;;5.62;55.01
31299;BME280;17927;52.350;13.402;2023-02-16T06:10:02;101923.16;;;5.61;55.20
31299;BME280;17927;52.350;13.402;2023-02-16T06:12:28;101925.00;;;5.60;55.14
31299;BME280;17927;52.350;13.402;2023-02-16T06:14:53;101916.06;;;5.60;55.16
31299;BME280;17927;52.350;13.402;2023-02-16T06:17:20;101917.91;;;5.59;55.12
31299;BME280;17927;52.350;13.402;2023-02-16T06:19:45;101916.16;;;5.58;55.21
31299;BME280;17927;52.350;13.402;2023-02-16T06:22:10;101923.34;;;5.58;55.27
31299;BME280;17927;52.350;13.402;2023-02-16T06:24:35;101924.28;;;5.57;55.35
31299;BME280;17927;52.350;13.402;2023-02-16T06:27:02;101919.78;;;5.57;55.15
31299;BME280;17927;52.350;13.402;2023-02-16T06:29:27;101922.53;;;5.56;55.36
31299;BME280;17927;52.350;13.402;2023-02-16T06:31:53;101922.53;;;5.56;55.31
31299;BME280;17927;52.350;13.402;2023-02-16T06:34:18;101929.72;;;5.55;55.57
31299;BME280;17927;52.350;13.402;2023-02-16T06:36:43;101928.00;;;5.54;55.18
31299;BME280;17927;52.350;13.402;2023-02-16T06:39:08;101934.22;;;5.55;55.28
31299;BME280;17927;52.350;13.402;2023-02-16T06:41:34;101928.84;;;5.55;55.21
31299;BME280;17927;52.350;13.402;2023-02-16T06:44:06;101921.75;;;5.54;55.40
31299;BME280;17927;52.350;13.402;2023-02-16T06:46:32;101927.06;;;5.55;55.36
31299;BME280;17927;52.350;13.402;2023-02-16T06:48:58;101926.16;;;5.55;55.25
31299;BME280;17927;52.350;13.402;2023-02-16T06:51:23;101925.22;;;5.56;55.61
31299;BME280;17927;52.350;13.402;2023-02-16T06:53:49;101925.16;;;5.57;55.47
31299;BME280;17927;52.350;13.402;2023-02-16T06:56:14;101922.53;;;5.56;55.65
31299;BME280;17927;52.350;13.402;2023-02-16T06:58:39;101930.53;;;5.57;55.43
31299;BME280;17927;52.350;13.402;2023-02-16T07:01:05;101924.13;;;5.60;55.41
31299;BME280;17927;52.350;13.402;2023-02-16T07:03:30;101930.28;;;5.62;55.68
31299;BME280;17927;52.350;13.402;2023-02-16T07:05:55;101934.59;;;5.64;55.75
31299;BME280;17927;52.350;13.402;2023-02-16T07:08:20;101935.31;;;5.68;55.66
31299;BME280;17927;52.350;13.402;2023-02-16T07:10:46;101929.69;;;5.73;55.80
31299;BME280;17927;52.350;13.402;2023-02-16T07:13:12;101939.28;;;5.77;55.63
31299;BME280;17927;52.350;13.402;2023-02-16T07:15:38;101937.22;;;5.82;55.73
31299;BME280;17927;52.350;13.402;2023-02-16T07:18:03;101934.31;;;5.87;55.87
31299;BME280;17927;52.350;13.402;2023-02-16T07:20:29;101943.91;;;5.91;55.90
31299;BME280;17927;52.350;13.402;2023-02-16T07:22:54;101940.19;;;5.93;55.94
31299;BME280;17927;52.350;13.402;2023-02-16T07:25:19;101944.44;;;5.98;55.88
31299;BME280;17927;52.350;13.402;2023-02-16T07:27:45;101945.16;;;6.01;55.91
31299;BME280;17927;52.350;13.402;2023-02-16T07:30:11;101929.69;;;6.06;56.03
31299;BME280;17927;52.350;13.402;2023-02-16T07:32:37;101934.63;;;6.14;56.00
31299;BME280;17927;52.350;13.402;2023-02-16T07:35:03;101937.06;;;6.19;56.08
31299;BME280;17927;52.350;13.402;2023-02-16T07:37:28;101932.31;;;6.24;56.17
31299;BME280;17927;52.350;13.402;2023-02-16T07:39:54;101932.16;;;6.27;56.12
31299;BME280;17927;52.350;13.402;2023-02-16T07:42:19;101938.03;;;6.34;56.10
31299;BME280;17927;52.350;13.402;2023-02-16T07:44:45;101927.88;;;6.39;56.05
31299;BME280;17927;52.350;13.402;2023-02-16T07:47:10;101932.06;;;6.45;56.08
31299;BME280;17927;52.350;13.402;2023-02-16T07:49:37;101930.91;;;6.49;55.82
31299;BME280;17927;52.350;13.402;2023-02-16T07:52:02;101936.03;;;6.53;55.61
31299;BME280;17927;52.350;13.402;2023-02-16T07:54:30;101940.09;;;6.61;56.03
31299;BME280;17927;52.350;13.402;2023-02-16T07:56:55;101929.09;;;6.65;55.81
31299;BME280;17927;52.350;13.402;2023-02-16T07:59:21;101912.69;;;6.70;55.75
31299;BME280;17927;52.350;13.402;2023-02-16T08:01:46;101911.66;;;6.73;55.79
31299;BME280;17927;52.350;13.402;2023-02-16T08:04:11;101916.75;;;6.77;55.91
31299;BME280;17927;52.350;13.402;2023-02-16T08:06:36;101926.28;;;6.83;55.54
31299;BME280;17927;52.350;13.402;2023-02-16T08:09:02;101922.38;;;6.89;55.87
31299;BME280;17927;52.350;13.402;2023-02-16T08:11:28;101932.75;;;6.95;55.88
31299;BME280;17927;52.350;13.402;2023-02-16T08:13:53;101926.25;;;6.99;55.53
31299;BME280;17927;52.350;13.402;2023-02-16T08:16:21;101923.47;;;7.00;55.51
31299;BME280;17927;52.350;13.402;2023-02-16T08:18:47;101920.50;;;7.05;55.63
31299;BME280;17927;52.350;13.402;2023-02-16T08:21:14;101919.28;;;7.11;55.90
31299;BME280;17927;52.350;13.402;2023-02-16T08:23:41;101925.13;;;7.18;55.62
31299;BME280;17927;52.350;13.402;2023-02-16T08:26:09;101930.16;;;7.24;55.82
31299;BME280;17927;52.350;13.402;2023-02-16T08:28:34;101929.03;;;7.28;55.65
31299;BME280;17927;52.350;13.402;2023-02-16T08:31:03;101931.31;;;7.34;55.28
31299;BME280;17927;52.350;13.402;2023-02-16T08:33:28;101948.91;;;7.40;55.40
31299;BME280;17927;52.350;13.402;2023-02-16T08:35:53;101946.13;;;7.41;55.31
31299;BME280;17927;52.350;13.402;2023-02-16T08:38:19;101943.94;;;7.48;55.43
31299;BME280;17927;52.350;13.402;2023-02-16T08:40:48;101934.63;;;7.54;55.26
31299;BME280;17927;52.350;13.402;2023-02-16T08:43:14;101934.34;;;7.58;55.15
31299;BME280;17927;52.350;13.402;2023-02-16T08:45:44;101935.78;;;7.64;55.26
31299;BME280;17927;52.350;13.402;2023-02-16T08:48:12;101928.19;;;7.71;55.48
31299;BME280;17927;52.350;13.402;2023-02-16T08:50:42;101932.13;;;7.80;55.78
31299;BME280;17927;52.350;13.402;2023-02-16T08:53:07;101928.97;;;7.87;55.53
31299;BME280;17927;52.350;13.402;2023-02-16T08:55:32;101924.16;;;7.92;55.38
31299;BME280;17927;52.350;13.402;2023-02-16T08:57:59;101928.22;;;8.00;55.61
31299;BME280;17927;52.350;13.402;2023-02-16T09:00:25;101936.66;;;8.08;55.49
31299;BME280;17927;52.350;13.402;2023-02-16T09:02:59;101933.56;;;8.14;55.34
31299;BME280;17927;52.350;13.402;2023-02-16T09:05:25;101930.28;;;8.23;55.63
31299;BME280;17927;52.350;13.402;2023-02-16T09:07:52;101918.06;;;8.32;55.79
31299;BME280;17927;52.350;13.402;2023-02-16T09:10:18;101912.16;;;8.40;55.26
31299;BME280;17927;52.350;13.402;2023-02-16T09:12:43;101918.91;;;8.47;55.60
31299;BME280;17927;52.350;13.402;2023-02-16T09:15:12;101912.16;;;8.55;55.50
31299;BME280;17927;52.350;13.402;2023-02-16T09:17:38;101916.06;;;8.63;55.60
31299;BME280;17927;52.350;13.402;2023-02-16T09:20:04;101913.81;;;8.70;55.36
31299;BME280;17927;52.350;13.402;2023-02-16T09:22:29;101906.84;;;8.80;55.40
31299;BME280;17927;52.350;13.402;2023-02-16T09:24:54;101912.59;;;8.89;55.72
31299;BME280;17927;52.350;13.402;2023-02-16T09:27:20;101921.91;;;8.97;55.67
31299;BME280;17927;52.350;13.402;2023-02-16T09:29:45;101908.88;;;9.04;55.34
31299;BME280;17927;52.350;13.402;2023-02-16T09:32:10;101916.31;;;9.13;55.26
31299;BME280;17927;52.350;13.402;2023-02-16T09:34:36;101910.31;;;9.23;55.25
31299;BME280;17927;52.350;13.402;2023-02-16T09:37:02;101911.50;;;9.32;55.49
31299;BME280;17927;52.350;13.402;2023-02-16T09:39:27;101911.59;;;9.43;55.30
31299;BME280;17927;52.350;13.402;2023-02-16T09:45:04;101914.19;;;9.57;55.14
31299;BME280;17927;52.350;13.402;2023-02-16T09:47:33;101914.28;;;9.69;55.32
31299;BME280;17927;52.350;13.402;2023-02-16T09:50:04;101919.81;;;9.80;55.23
31299;BME280;17927;52.350;13.402;2023-02-16T09:52:37;101920.00;;;9.90;54.79
31299;BME280;17927;52.350;13.402;2023-02-16T09:55:12;101916.75;;;9.98;54.54
31299;BME280;17927;52.350;13.402;2023-02-16T09:58:02;101915.22;;;10.06;54.51
31299;BME280;17927;52.350;13.402;2023-02-16T10:05:43;101904.47;;;10.31;54.20
31299;BME280;17927;52.350;13.402;2023-02-16T10:08:13;101893.88;;;10.41;54.08
31299;BME280;17927;52.350;13.402;2023-02-16T10:10:45;101895.78;;;10.51;54.07
31299;BME280;17927;52.350;13.402;2023-02-16T10:13:20;101897.78;;;10.61;54.23
31299;BME280;17927;52.350;13.402;2023-02-16T10:15:47;101902.59;;;10.69;53.92
31299;BME280;17927;52.350;13.402;2023-02-16T10:18:27;101894.66;;;10.78;53.58
31299;BME280;17927;52.350;13.402;2023-02-16T10:20:54;101901.22;;;10.87;53.85
31299;BME280;17927;52.350;13.402;2023-02-16T10:23:33;101898.69;;;10.97;53.58
31299;BME280;17927;52.350;13.402;2023-02-16T10:26:13;101899.94;;;11.04;53.49
31299;BME280;17927;52.350;13.402;2023-02-16T10:28:45;101908.06;;;11.16;53.52
31299;BME280;17927;52.350;13.402;2023-02-16T10:31:27;101909.28;;;11.11;53.47
31299;BME280;17927;52.350;13.402;2023-02-16T10:37:05;101912.06;;;11.34;53.22
31299;BME280;17927;52.350;13.402;2023-02-16T10:39:40;101899.66;;;11.43;53.09
31299;BME280;17927;52.350;13.402;2023-02-16T10:42:33;101899.53;;;11.56;53.02
31299;BME280;17927;52.350;13.402;2023-02-16T10:45:10;101899.06;;;11.62;53.05
31299;BME280;17927;52.350;13.402;2023-02-16T10:47:42;101899.28;;;11.70;52.58
31299;BME280;17927;52.350;13.402;2023-02-16T10:50:27;101900.16;;;11.82;52.47
31299;BME280;17927;52.350;13.402;2023-02-16T10:52:57;101889.59;;;11.91;52.50
31299;BME280;17927;52.350;13.402;2023-02-16T10:55:23;101892.31;;;12.02;52.33
31299;BME280;17927;52.350;13.402;2023-02-16T10:57:55;101892.16;;;12.15;52.17
31299;BME280;17927;52.350;13.402;2023-02-16T11:00:27;101881.44;;;12.25;51.55
31299;BME280;17927;52.350;13.402;2023-02-16T11:03:01;101875.13;;;12.36;51.26
31299;BME280;17927;52.350;13.402;2023-02-16T11:05:32;101881.50;;;12.46;51.15
31299;BME280;17927;52.350;13.402;2023-02-16T11:07:59;101874.19;;;12.58;51.13
31299;BME280;17927;52.350;13.402;2023-02-16T11:10:43;101869.75;;;12.68;50.64
31299;BME280;17927;52.350;13.402;2023-02-16T11:13:21;101868.06;;;12.77;50.67
31299;BME280;17927;52.350;13.402;2023-02-16T11:15:51;101869.88;;;12.88;50.57
31299;BME280;17927;52.350;13.402;2023-02-16T11:18:28;101866.09;;;13.00;49.73
31299;BME280;17927;52.350;13.402;2023-02-16T11:20:56;101878.75;;;13.11;50.30
31299;BME280;17927;52.350;13.402;2023-02-16T11:23:27;101866.25;;;13.20;49.91
31299;BME280;17927;52.350;13.402;2023-02-16T11:31:00;101858.09;;;13.41;49.24
31299;BME280;17927;52.350;13.402;2023-02-16T11:33:26;101866.56;;;13.48;49.25
31299;BME280;17927;52.350;13.402;2023-02-16T11:35:53;101859.75;;;13.53;48.92
31299;BME280;17927;52.350;13.402;2023-02-16T11:38:34;101852.78;;;13.61;48.77
31299;BME280;17927;52.350;13.402;2023-02-16T11:41:04;101854.09;;;13.66;48.67
31299;BME280;17927;52.350;13.402;2023-02-16T11:43:33;101857.00;;;13.75;48.36
31299;BME280;17927;52.350;13.402;2023-02-16T11:46:03;101853.59;;;13.82;48.07
31299;BME280;17927;52.350;13.402;2023-02-16T11:48:31;101853.75;;;13.91;47.85
31299;BME280;17927;52.350;13.402;2023-02-16T11:51:05;101844.19;;;13.96;47.55
31299;BME280;17927;52.350;13.402;2023-02-16T11:53:33;101836.47;;;14.01;47.41
31299;BME280;17927;52.350;13.402;2023-02-16T11:56:30;101838.50;;;14.09;46.95
31299;BME280;17927;52.350;13.402;2023-02-16T11:59:18;101829.09;;;14.13;46.84
31299;BME280;17927;52.350;13.402;2023-02-16T12:26:03;101805.38;;;14.84;45.51
31299;BME280;17927;52.350;13.402;2023-02-16T12:34:41;101797.81;;;15.26;45.75
31299;BME280;17927;52.350;13.402;2023-02-16T12:40:02;101784.38;;;15.52;44.23
31299;BME280;17927;52.350;13.402;2023-02-16T12:42:42;101785.91;;;15.64;44.27
31299;BME280;17927;52.350;13.402;2023-02-16T12:45:15;101793.72;;;15.77;43.85
31299;BME280;17927;52.350;13.402;2023-02-16T12:47:47;101788.78;;;15.91;43.65
31299;BME280;17927;52.350;13.402;2023-02-16T12:50:18;101785.53;;;16.05;43.66
31299;BME280;17927;52.350;13.402;2023-02-16T12:52:51;101793.72;;;16.23;43.64
31299;BME280;17927;52.350;13.402;2023-02-16T12:55:24;101783.97;;;16.39;42.76
31299;BME280;17927;52.350;13.402;2023-02-16T12:57:57;101790.59;;;16.54;42.37
31299;BME280;17927;52.350;13.402;2023-02-16T13:00:38;101793.94;;;16.66;41.95
31299;BME280;17927;52.350;13.402;2023-02-16T13:05:45;101779.03;;;16.79;41.64
31299;BME280;17927;52.350;13.402;2023-02-16T13:08:35;101786.19;;;16.80;41.26
31299;BME280;17927;52.350;13.402;2023-02-16T13:11:12;101784.47;;;16.79;41.30
31299;BME280;17927;52.350;13.402;2023-02-16T13:13:42;101776.50;;;16.85;41.79
31299;BME280;17927;52.350;13.402;2023-02-16T13:16:18;101774.41;;;16.97;41.47
31299;BME280;17927;52.350;13.402;2023-02-16T13:18:49;101767.84;;;17.08;41.17
31299;BME280;17927;52.350;13.402;2023-02-16T13:21:37;101768.75;;;17.17;41.00
31299;BME280;17927;52.350;13.402;2023-02-16T13:24:11;101772.38;;;17.26;40.71
31299;BME280;17927;52.350;13.402;2023-02-16T13:32:26;101763.09;;;17.53;40.73
31299;BME280;17927;52.350;13.402;2023-02-16T13:38:31;101758.44;;;17.80;41.29
31299;BME280;17927;52.350;13.402;2023-02-16T13:43:42;101752.31;;;17.94;41.96
31299;BME280;17927;52.350;13.402;2023-02-16T13:46:17;101761.09;;;18.15;41.23
31299;BME280;17927;52.350;13.402;2023-02-16T13:48:49;101741.44;;;18.28;40.84
31299;BME280;17927;52.350;13.402;2023-02-16T13:51:19;101748.97;;;18.42;40.54
31299;BME280;17927;52.350;13.402;2023-02-16T13:53:52;101751.34;;;18.53;40.57
31299;BME280;17927;52.350;13.402;2023-02-16T13:56:22;101745.38;;;18.66;40.55
31299;BME280;17927;52.350;13.402;2023-02-16T13:59:46;101756.78;;;18.78;40.43
31299;BME280;17927;52.350;13.402;2023-02-16T14:01:45;101751.81;;;18.90;40.47
31299;BME280;17927;52.350;13.402;2023-02-16T14:09:31;101760.38;;;18.87;40.50
31299;BME280;17927;52.350;13.402;2023-02-16T14:12:02;101758.66;;;18.86;40.00
31299;BME280;17927;52.350;13.402;2023-02-16T14:20:25;101750.31;;;18.63;38.81
31299;BME280;17927;52.350;13.402;2023-02-16T14:22:53;101758.88;;;18.51;39.02
31299;BME280;17927;52.350;13.402;2023-02-16T14:27:48;101750.53;;;18.36;38.87